Time;durP1;ratioP1;P1;durP2;ratioP2;P2;SDS_P1;SDS_P2;PMS_P1;PMS_P2;Temp;Humidity;BMP_temperature;BMP_pressure;BME280_temperature;BME280_humidity;BME280_pressure;Samples;Min_cycle;Max_cycle;Signal;HPM_P1;HPM_P2
2023/05/27 00:00:56;;;;;;;;;9.50;8.25;;;;;17.62;45.64;99433.56;7779230;22;97205;-61
2023/05/27 00:03:59;;;;;;;;;7.20;5.20;;;;;17.52;46.09;99429.84;7785039;22;98496;-60
2023/05/27 00:07:04;;;;;;;;;7.00;6.00;;;;;17.50;46.10;99442.91;7786113;22;96779;-60
2023/05/27 00:10:09;;;;;;;;;9.40;9.00;;;;;17.30;46.71;99425.22;7760775;22;98779;-60
2023/05/27 00:13:12;;;;;;;;;6.00;6.00;;;;;17.32;47.18;99436.69;7812322;22;96177;-60
2023/05/27 00:16:17;;;;;;;;;7.25;7.25;;;;;17.27;47.35;99439.34;7812445;22;96186;-60
2023/05/27 00:19:20;;;;;;;;;13.00;9.00;;;;;17.23;47.20;99426.47;7812526;22;96275;-60
2023/05/27 00:22:28;;;;;;;;;13.00;10.00;;;;;17.19;47.02;99420.72;7813192;22;96294;-60
2023/05/27 00:25:31;;;;;;;;;6.20;5.20;;;;;17.09;47.84;99419.75;7812578;22;96250;-61
2023/05/27 00:28:34;;;;;;;;;7.00;6.20;;;;;17.03;47.80;99410.66;7813126;22;96169;-60
2023/05/27 00:31:38;;;;;;;;;8.00;7.20;;;;;16.96;48.35;99415.47;7812110;22;96381;-60
2023/05/27 00:34:41;;;;;;;;;9.00;8.75;;;;;16.87;48.49;99420.50;7786280;22;96568;-60
2023/05/27 00:37:46;;;;;;;;;9.40;8.00;;;;;16.83;48.47;99424.81;7758389;22;96787;-61
2023/05/27 00:40:51;;;;;;;;;8.00;7.00;;;;;16.79;48.79;99420.13;7785915;22;96062;-61
2023/05/27 00:43:54;;;;;;;;;9.00;8.40;;;;;16.76;48.86;99421.41;7811281;22;96215;-61
2023/05/27 00:46:58;;;;;;;;;9.25;8.00;;;;;16.74;48.45;99428.22;7812853;22;96752;-60
2023/05/27 00:50:01;;;;;;;;;9.60;8.60;;;;;16.75;48.41;99417.06;7785922;22;96156;-60
2023/05/27 00:53:06;;;;;;;;;8.00;7.00;;;;;16.71;48.66;99429.50;7812826;22;96130;-60
2023/05/27 00:56:10;;;;;;;;;10.50;9.00;;;;;16.66;49.08;99439.53;7785567;22;96146;-61
2023/05/27 00:59:13;;;;;;;;;8.00;7.00;;;;;16.54;48.98;99444.19;7785714;22;96228;-61
2023/05/27 01:02:17;;;;;;;;;6.00;6.00;;;;;16.51;48.71;99442.78;7785229;22;96595;-60
2023/05/27 01:05:21;;;;;;;;;9.20;8.20;;;;;16.54;48.76;99455.06;7784688;22;96822;-60
2023/05/27 01:08:32;;;;;;;;;8.50;8.50;;;;;16.48;49.25;99451.44;7812444;22;96239;-61
2023/05/27 01:11:44;;;;;;;;;8.20;7.20;;;;;16.43;49.70;99454.06;7785683;22;98923;-60
2023/05/27 01:14:51;;;;;;;;;8.75;8.25;;;;;16.35;50.09;99449.03;7812228;22;96238;-60
2023/05/27 01:17:57;;;;;;;;;11.40;10.80;;;;;16.25;50.29;99451.56;7786640;22;96365;-60
2023/05/27 01:21:06;;;;;;;;;9.00;8.00;;;;;16.22;49.95;99443.91;7813532;22;96721;-60
2023/05/27 01:24:12;;;;;;;;;8.50;8.00;;;;;16.09;50.31;99427.88;7787304;22;96271;-60
2023/05/27 01:27:15;;;;;;;;;9.00;7.75;;;;;16.13;50.60;99442.63;7787279;22;96171;-60
2023/05/27 01:30:19;;;;;;;;;10.00;9.40;;;;;16.09;50.87;99447.72;7787111;22;96815;-60
2023/05/27 01:33:30;;;;;;;;;10.00;9.00;;;;;15.99;51.20;99442.94;7813583;22;96321;-60
2023/05/27 01:36:42;;;;;;;;;11.00;9.40;;;;;15.94;51.65;99442.00;7787359;22;96242;-60
2023/05/27 01:39:48;;;;;;;;;10.00;9.00;;;;;15.87;51.78;99444.06;7787167;22;96306;-61
2023/05/27 01:42:53;;;;;;;;;9.00;9.00;;;;;15.82;52.09;99449.41;7761121;22;97659;-60
2023/05/27 01:45:57;;;;;;;;;9.80;8.00;;;;;15.75;51.87;99448.69;7813901;22;96202;-60
2023/05/27 01:49:00;;;;;;;;;7.00;7.00;;;;;15.79;51.29;99452.59;7813318;22;96179;-60
2023/05/27 01:52:06;;;;;;;;;9.00;8.00;;;;;15.78;51.94;99453.69;7787142;22;96483;-61
2023/05/27 01:55:11;;;;;;;;;6.40;5.40;;;;;15.74;51.34;99453.31;7787226;22;96219;-60
2023/05/27 01:58:15;;;;;;;;;10.00;9.40;;;;;15.76;50.78;99453.06;7787470;22;96192;-60
2023/05/27 02:01:18;;;;;;;;;9.00;8.40;;;;;15.78;51.28;99456.38;7786512;22;96374;-60
2023/05/27 02:04:22;;;;;;;;;8.00;8.00;;;;;15.73;51.53;99462.56;7786964;22;96641;-60
2023/05/27 02:07:26;;;;;;;;;6.60;5.00;;;;;15.68;52.08;99464.34;7787025;22;96200;-60
2023/05/27 02:10:31;;;;;;;;;7.00;7.00;;;;;15.62;52.29;99457.97;7760615;22;96599;-59
2023/05/27 02:13:36;;;;;;;;;8.00;8.00;;;;;15.52;52.72;99458.59;7786839;22;96239;-60
2023/05/27 02:16:40;;;;;;;;;8.00;6.40;;;;;15.37;52.71;99443.81;7787085;22;96265;-60
2023/05/27 04:10:49;;;;;;;;;8.80;8.00;;;;;16.37;50.91;99548.38;7708931;22;99034;-61
2023/05/27 04:13:53;;;;;;;;;12.00;11.00;;;;;16.48;50.93;99550.25;7784375;22;98531;-61
2023/05/27 04:16:56;;;;;;;;;7.75;7.00;;;;;16.66;50.76;99557.44;7785778;22;96432;-62
2023/05/27 04:20:00;;;;;;;;;11.80;11.20;;;;;16.83;49.96;99551.97;7812716;22;96722;-62
2023/05/27 04:23:05;;;;;;;;;11.00;10.60;;;;;16.97;48.50;99556.03;7785971;22;96287;-62
2023/05/27 04:26:10;;;;;;;;;8.00;8.00;;;;;17.14;48.00;99562.31;7786142;22;96780;-61
2023/05/27 04:29:15;;;;;;;;;8.00;8.00;;;;;17.30;47.29;99566.94;7785946;22;96280;-61
2023/05/27 05:25:12;;;;;;;;;10.80;8.00;;;;;19.22;41.81;99594.94;7708179;22;98668;-62
2023/05/27 05:28:24;;;;;;;;;8.00;8.00;;;;;19.38;41.50;99583.06;7745323;22;96887;-62
2023/05/27 05:31:27;;;;;;;;;7.00;7.00;;;;;19.51;41.41;99582.63;7718833;22;98407;-61
2023/05/27 05:34:31;;;;;;;;;7.00;7.00;;;;;19.61;40.71;99584.59;7746745;22;96283;-62
2023/05/27 05:37:36;;;;;;;;;7.00;6.40;;;;;19.65;40.44;99583.81;7745544;22;96358;-62
2023/05/27 05:40:41;;;;;;;;;7.00;6.33;;;;;19.80;40.43;99578.44;7720011;22;96770;-62
2023/05/27 05:43:50;;;;;;;;;7.60;7.00;;;;;19.85;39.94;99556.56;7746105;22;96160;-61
2023/05/27 05:46:53;;;;;;;;;9.00;9.00;;;;;19.95;38.84;99582.34;7746304;22;96371;-62
2023/05/27 05:49:59;;;;;;;;;8.40;7.40;;;;;20.03;38.72;99590.06;7744928;22;96210;-61
2023/05/27 05:53:05;;;;;;;;;8.00;7.00;;;;;20.12;39.02;99583.00;7745297;22;96713;-61
2023/05/27 05:56:10;;;;;;;;;10.00;9.00;;;;;20.19;39.54;99586.28;7745506;22;96272;-61
2023/05/27 05:59:14;;;;;;;;;7.00;7.00;;;;;20.38;39.36;99587.50;7746050;22;96273;-61
2023/05/27 06:02:17;;;;;;;;;6.00;6.00;;;;;20.53;38.72;99593.03;7745255;22;96323;-62
2023/05/27 06:05:22;;;;;;;;;8.00;7.00;;;;;20.58;38.21;99581.25;7719114;22;98539;-62
2023/05/27 06:08:25;;;;;;;;;5.20;5.20;;;;;20.68;39.14;99576.63;7771767;22;96347;-62
2023/05/27 06:11:39;;;;;;;;;9.40;7.00;;;;;20.89;38.51;99587.63;7744429;22;96287;-61
2023/05/27 06:14:42;;;;;;;;;8.50;7.50;;;;;20.95;37.51;99590.09;7744511;22;96500;-62
2023/05/27 06:17:50;;;;;;;;;7.60;7.00;;;;;21.07;38.24;99590.66;7744699;22;96250;-62
2023/05/27 06:20:54;;;;;;;;;11.00;9.00;;;;;21.18;37.70;99597.84;7745014;22;96852;-61
2023/05/27 06:23:59;;;;;;;;;7.20;7.20;;;;;21.29;37.34;99597.84;7744688;22;96222;-61
2023/05/27 06:27:10;;;;;;;;;8.00;7.00;;;;;21.41;37.10;99601.94;7747243;22;96778;-62
2023/05/27 06:30:14;;;;;;;;;10.40;10.00;;;;;21.50;36.93;99589.31;7771617;22;96093;-59
2023/05/27 06:33:20;;;;;;;;;7.60;7.00;;;;;21.67;36.63;99597.25;7772369;22;96505;-60
2023/05/27 06:36:23;;;;;;;;;5.40;4.80;;;;;21.71;35.70;99603.81;7773085;22;96371;-60
2023/05/27 06:39:27;;;;;;;;;9.00;8.00;;;;;21.67;35.19;99594.50;7745525;22;96475;-59
2023/05/27 06:42:32;;;;;;;;;9.00;6.40;;;;;21.74;34.95;99596.97;7745677;22;96215;-59
2023/05/27 06:45:44;;;;;;;;;8.00;8.00;;;;;21.92;35.74;99599.13;7719617;22;98439;-59
2023/05/27 06:49:16;;;;;;;;;8.00;7.00;;;;;22.03;34.76;99598.03;7772538;22;98623;-60
2023/05/27 06:52:20;;;;;;;;;8.00;7.00;;;;;22.03;34.93;99592.53;7746792;22;96234;-60
2023/05/27 06:55:56;;;;;;;;;9.00;8.00;;;;;22.13;34.97;99591.69;7722141;22;96182;-59
2023/05/27 06:59:24;;;;;;;;;7.00;7.00;;;;;22.33;34.72;99594.34;7757718;22;96147;-60
2023/05/27 07:02:27;;;;;;;;;7.00;6.00;;;;;22.51;33.92;99584.63;7746184;22;96236;-60
2023/05/27 07:05:31;;;;;;;;;10.75;10.50;;;;;22.71;35.16;99587.31;7772592;22;96813;-60
2023/05/27 07:08:34;;;;;;;;;9.00;9.00;;;;;22.97;33.69;99597.00;7773287;22;97257;-59
2023/05/27 07:11:48;;;;;;;;;7.00;6.80;;;;;23.15;33.25;99595.53;7721090;22;98298;-60
2023/05/27 07:15:13;;;;;;;;;7.80;7.00;;;;;23.38;31.88;99600.28;7773673;22;96358;-60
2023/05/27 07:18:17;;;;;;;;;5.00;4.00;;;;;23.28;31.57;99594.88;7773294;22;96281;-60
2023/05/27 07:21:21;;;;;;;;;7.00;6.00;;;;;23.36;31.68;99598.94;7747400;22;96167;-60
2023/05/27 07:24:25;;;;;;;;;6.00;5.00;;;;;23.32;29.57;99596.75;7775972;22;96873;-61
2023/05/27 07:27:30;;;;;;;;;6.00;5.80;;;;;23.36;31.11;99596.19;7746130;22;96168;-60
2023/05/27 07:30:36;;;;;;;;;7.00;7.00;;;;;23.39;31.55;99588.19;7745449;22;96185;-60
2023/05/27 07:33:41;;;;;;;;;8.00;6.80;;;;;23.50;30.66;99595.28;7719352;22;96720;-60
2023/05/27 07:36:46;;;;;;;;;5.20;4.20;;;;;23.55;31.47;99589.72;7747074;22;96182;-60
2023/05/27 07:39:50;;;;;;;;;7.60;7.00;;;;;23.72;30.33;99603.03;7746701;22;96165;-60
2023/05/27 07:42:54;;;;;;;;;6.40;6.00;;;;;24.11;32.12;99600.97;7736025;22;96182;-58
2023/05/27 07:45:59;;;;;;;;;7.00;6.67;;;;;24.40;31.06;99602.84;7733214;22;96238;-58
2023/05/27 07:49:02;;;;;;;;;7.00;6.00;;;;;24.27;29.45;99600.81;7732750;22;96893;-59
2023/05/27 07:52:07;;;;;;;;;9.50;7.50;;;;;24.54;30.92;99592.72;7733399;22;96243;-59
2023/05/27 07:55:11;;;;;;;;;7.00;6.00;;;;;24.94;30.19;99594.13;7730881;22;96305;-58
2023/05/27 07:58:14;;;;;;;;;4.20;4.00;;;;;25.28;30.67;99591.09;7730461;22;96338;-59
2023/05/27 08:01:42;;;;;;;;;8.00;7.00;;;;;25.67;30.26;99597.06;7756768;22;96362;-59
2023/05/27 08:04:46;;;;;;;;;8.40;8.40;;;;;26.00;29.53;99580.47;7731254;22;96213;-59
2023/05/27 08:08:12;;;;;;;;;6.50;5.25;;;;;26.11;28.65;99590.97;7729963;22;96777;-59
2023/05/27 08:11:35;;;;;;;;;6.00;5.00;;;;;26.44;29.01;99585.38;7756560;22;96250;-59
2023/05/27 08:15:09;;;;;;;;;6.60;6.60;;;;;26.62;27.65;99581.66;7624318;22;96803;-59
2023/05/27 08:18:37;;;;;;;;;8.40;7.00;;;;;26.73;27.78;99586.63;7743086;22;96205;-58
2023/05/27 08:21:51;;;;;;;;;8.00;7.00;;;;;26.99;27.41;99584.13;7733170;22;96203;-59
2023/05/27 08:25:13;;;;;;;;;6.75;6.75;;;;;27.24;28.25;99591.00;7759969;22;96181;-59
2023/05/27 08:28:36;;;;;;;;;6.00;6.00;;;;;27.46;27.28;99592.97;7735066;22;96385;-59
2023/05/27 08:32:10;;;;;;;;;9.00;9.00;;;;;27.56;26.97;99584.44;7677985;22;98693;-59
2023/05/27 08:35:16;;;;;;;;;9.40;7.40;;;;;27.67;25.63;99584.97;7683224;22;96732;-59
2023/05/27 08:38:20;;;;;;;;;6.80;6.80;;;;;27.51;26.00;99582.59;7708273;22;96339;-59
2023/05/27 08:41:26;;;;;;;;;7.00;7.00;;;;;27.61;27.14;99576.00;7710194;22;96329;-58
2023/05/27 08:44:30;;;;;;;;;7.00;7.00;;;;;27.66;27.00;99570.28;7708970;22;96733;-59
2023/05/27 08:47:39;;;;;;;;;7.60;6.00;;;;;27.86;27.70;99577.22;7710681;22;96883;-59
2023/05/27 08:50:48;;;;;;;;;6.75;5.75;;;;;27.93;26.51;99575.66;7709891;22;96302;-59
2023/05/27 08:53:52;;;;;;;;;4.40;4.00;;;;;28.00;26.46;99572.44;7709609;22;97486;-59
2023/05/27 08:56:58;;;;;;;;;6.20;5.20;;;;;28.12;26.13;99569.06;7710116;22;96938;-58
2023/05/27 09:00:05;;;;;;;;;9.00;7.00;;;;;28.31;26.12;99567.66;7710051;22;97048;-59
2023/05/27 09:03:10;;;;;;;;;7.00;6.80;;;;;28.49;25.37;99570.47;7709863;22;96415;-59
2023/05/27 09:06:15;;;;;;;;;7.00;5.00;;;;;28.64;26.20;99573.59;7709463;22;97467;-59
2023/05/27 09:09:20;;;;;;;;;8.00;7.00;;;;;28.71;25.72;99562.88;7736871;22;96318;-59
2023/05/27 09:12:24;;;;;;;;;6.00;5.00;;;;;28.80;26.01;99560.91;7736914;22;96559;-59
2023/05/27 09:15:28;;;;;;;;;8.00;7.00;;;;;28.99;25.64;99559.75;7737146;22;96493;-59
2023/05/27 09:18:33;;;;;;;;;5.00;5.00;;;;;28.87;25.69;99554.06;7737022;22;96812;-59
2023/05/27 09:21:39;;;;;;;;;8.00;7.20;;;;;28.60;24.68;99544.03;7709922;22;96400;-59
2023/05/27 09:24:42;;;;;;;;;7.00;6.20;;;;;28.72;27.12;99545.09;7736435;22;96758;-59
2023/05/27 09:27:45;;;;;;;;;19.00;16.00;;;;;28.79;27.70;99548.16;7709571;22;96205;-59
2023/05/27 09:30:52;;;;;;;;;11.00;7.50;;;;;29.07;26.86;99533.97;7736025;22;96339;-59
2023/05/27 09:33:56;;;;;;;;;6.00;6.00;;;;;29.20;25.90;99533.78;7736473;22;96913;-59
2023/05/27 09:37:01;;;;;;;;;9.00;9.00;;;;;29.30;26.06;99529.84;7736700;22;96339;-59
2023/05/27 09:40:09;;;;;;;;;7.60;6.60;;;;;29.13;25.71;99521.53;7738420;22;96348;-59
2023/05/27 09:43:14;;;;;;;;;7.00;7.00;;;;;29.31;25.77;99519.59;7738268;22;96315;-59
2023/05/27 09:46:18;;;;;;;;;15.40;12.20;;;;;29.43;25.26;99533.59;7738177;22;96446;-59
2023/05/27 09:49:23;;;;;;;;;13.60;13.60;;;;;29.49;24.25;99522.00;7737624;22;96360;-59
2023/05/27 09:52:28;;;;;;;;;15.50;14.00;;;;;29.56;25.45;99527.03;7738820;22;96393;-60
2023/05/27 09:55:32;;;;;;;;;8.40;6.60;;;;;29.75;24.77;99521.09;7738593;22;96223;-59
2023/05/27 09:58:35;;;;;;;;;10.80;9.00;;;;;29.80;24.81;99527.28;7738384;22;96790;-59
2023/05/27 10:01:40;;;;;;;;;9.60;9.00;;;;;29.92;25.47;99530.19;7736687;22;97003;-59
2023/05/27 10:04:45;;;;;;;;;6.60;5.00;;;;;30.06;25.13;99521.59;7738714;22;96516;-58
2023/05/27 10:07:50;;;;;;;;;6.00;5.00;;;;;30.05;24.31;99520.00;7738125;22;96418;-59
2023/05/27 10:11:14;;;;;;;;;7.50;6.50;;;;;30.32;24.05;99524.25;7738029;22;96936;-59
2023/05/27 10:14:18;;;;;;;;;7.80;7.40;;;;;30.27;23.23;99516.91;7738401;22;96820;-59
2023/05/27 10:17:22;;;;;;;;;7.40;7.00;;;;;30.15;23.05;99522.41;7738512;22;96795;-59
2023/05/27 10:20:27;;;;;;;;;5.00;4.60;;;;;30.05;22.88;99518.03;7738202;22;96226;-59
2023/05/27 10:23:32;;;;;;;;;6.00;5.75;;;;;29.88;22.71;99526.41;7738086;22;96480;-59
2023/05/27 10:26:37;;;;;;;;;8.00;7.00;;;;;29.79;21.99;99516.50;7737743;22;96242;-59
2023/05/27 10:29:41;;;;;;;;;6.00;5.60;;;;;29.67;21.91;99517.19;7738267;22;96236;-59
2023/05/27 10:32:45;;;;;;;;;5.00;5.00;;;;;29.87;23.02;99518.41;7710067;22;96598;-59
2023/05/27 10:35:50;;;;;;;;;5.40;5.00;;;;;29.98;22.15;99523.28;7738301;22;96801;-59
2023/05/27 10:39:00;;;;;;;;;7.00;6.20;;;;;30.04;23.30;99512.81;7736966;22;96288;-59
2023/05/27 10:42:04;;;;;;;;;5.25;4.50;;;;;30.06;22.54;99513.25;7737597;22;96789;-59
2023/05/27 10:45:10;;;;;;;;;5.00;5.00;;;;;29.90;23.46;99518.59;7710093;22;96778;-59
2023/05/27 10:48:19;;;;;;;;;5.00;5.00;;;;;30.06;22.82;99510.47;7737668;22;96299;-59
2023/05/27 10:51:32;;;;;;;;;6.00;4.40;;;;;30.17;21.98;99513.69;7737572;22;96326;-59
2023/05/27 10:54:37;;;;;;;;;7.00;6.00;;;;;30.06;20.14;99513.25;7738305;22;96386;-58
2023/05/27 10:57:41;;;;;;;;;7.00;6.50;;;;;30.23;20.63;99506.81;7737833;22;96271;-59
2023/05/27 11:00:46;;;;;;;;;5.20;5.00;;;;;30.23;20.46;99504.84;7737560;22;96802;-59
2023/05/27 11:03:49;;;;;;;;;5.75;5.00;;;;;30.21;20.39;99509.09;7737711;22;96463;-59
2023/05/27 11:07:00;;;;;;;;;6.00;6.00;;;;;30.24;19.82;99500.09;7737776;22;96239;-59
2023/05/27 11:10:10;;;;;;;;;5.00;5.00;;;;;30.36;20.99;99495.41;7738073;22;96931;-58
2023/05/27 11:13:13;;;;;;;;;6.00;5.25;;;;;30.42;21.12;99490.47;7737748;22;96281;-59
2023/05/27 11:16:17;;;;;;;;;6.00;5.00;;;;;30.49;19.98;99483.25;7738130;22;96764;-59
2023/05/27 11:19:22;;;;;;;;;7.40;7.00;;;;;30.49;19.65;99488.81;7737626;22;97616;-58
2023/05/27 11:22:25;;;;;;;;;7.20;6.00;;;;;30.39;18.51;99475.28;7737546;22;96311;-59
2023/05/27 11:25:30;;;;;;;;;7.40;7.00;;;;;30.45;19.04;99492.56;7737231;22;96437;-59
2023/05/27 11:28:33;;;;;;;;;6.00;5.20;;;;;30.33;18.69;99484.16;7710764;22;98470;-59
2023/05/27 11:31:40;;;;;;;;;7.50;6.75;;;;;30.32;19.31;99490.88;7737993;22;97296;-59
2023/05/27 11:34:45;;;;;;;;;7.00;6.00;;;;;30.24;17.45;99481.44;7737925;22;96352;-59
2023/05/27 11:37:51;;;;;;;;;7.25;7.00;;;;;30.31;18.71;99480.88;7737780;22;96393;-59
2023/05/27 11:40:56;;;;;;;;;7.00;6.40;;;;;30.23;18.50;99484.56;7736565;22;96752;-59
2023/05/27 11:44:01;;;;;;;;;7.00;7.00;;;;;30.17;17.72;99481.16;7737259;22;96226;-59
2023/05/27 11:47:05;;;;;;;;;11.00;8.40;;;;;30.36;18.40;99475.13;7737203;22;96264;-59
2023/05/27 11:50:09;;;;;;;;;6.60;6.00;;;;;30.45;18.41;99479.47;7735758;22;96579;-59
2023/05/27 11:53:17;;;;;;;;;8.00;8.00;;;;;30.52;19.57;99474.22;7737295;22;96809;-59
2023/05/27 11:56:22;;;;;;;;;8.67;8.00;;;;;30.66;18.83;99481.47;7737009;22;96498;-59
2023/05/27 11:59:26;;;;;;;;;9.40;7.40;;;;;30.76;19.37;99467.13;7737371;22;96661;-58
2023/05/27 12:02:29;;;;;;;;;9.00;7.00;;;;;30.89;19.24;99466.03;7735921;22;97999;-58
2023/05/27 12:05:33;;;;;;;;;8.20;7.00;;;;;30.94;20.20;99465.81;7737044;22;96459;-59
2023/05/27 12:08:38;;;;;;;;;8.40;8.00;;;;;31.15;20.04;99469.41;7736981;22;96731;-59
2023/05/27 12:11:42;;;;;;;;;7.00;6.00;;;;;31.24;19.03;99472.09;7735002;22;97216;-59
2023/05/27 12:14:46;;;;;;;;;8.00;7.40;;;;;31.17;19.11;99467.09;7734998;22;96691;-58
2023/05/27 12:17:49;;;;;;;;;9.00;8.00;;;;;30.76;19.51;99470.75;7708629;22;96681;-59
2023/05/27 12:20:52;;;;;;;;;8.40;6.20;;;;;30.61;18.93;99468.56;7735279;22;96444;-59
2023/05/27 12:23:56;;;;;;;;;7.00;7.00;;;;;30.48;19.66;99458.53;7734894;22;96343;-59
2023/05/27 12:27:01;;;;;;;;;8.60;8.00;;;;;30.41;18.99;99463.78;7735695;22;96960;-59
2023/05/27 12:30:05;;;;;;;;;8.00;8.00;;;;;30.37;18.75;99454.50;7735903;22;96976;-59
2023/05/27 12:33:09;;;;;;;;;8.00;7.00;;;;;30.37;18.61;99460.06;7735280;22;96415;-59
2023/05/27 12:36:12;;;;;;;;;7.00;6.00;;;;;30.43;18.81;99453.16;7734335;22;97317;-58
2023/05/27 12:39:17;;;;;;;;;6.00;6.00;;;;;30.17;20.02;99450.56;7734509;22;96745;-59
2023/05/27 12:42:22;;;;;;;;;7.00;7.00;;;;;30.23;19.45;99448.41;7733569;22;96392;-59
2023/05/27 12:45:26;;;;;;;;;8.75;6.75;;;;;30.33;20.75;99443.25;7731132;22;96851;-59
2023/05/27 12:48:30;;;;;;;;;6.00;6.00;;;;;30.39;20.18;99439.13;7734792;22;97415;-59
2023/05/27 12:51:35;;;;;;;;;6.00;6.00;;;;;30.38;19.79;99451.38;7735438;22;96394;-58
2023/05/27 12:54:38;;;;;;;;;6.50;6.00;;;;;30.50;20.13;99451.47;7736307;22;96376;-58
2023/05/27 12:57:43;;;;;;;;;6.00;6.00;;;;;30.41;19.67;99453.47;7736128;22;97484;-58
2023/05/27 13:00:47;;;;;;;;;6.00;5.00;;;;;30.33;19.14;99453.56;7735856;22;96306;-59
2023/05/27 13:03:51;;;;;;;;;4.80;4.80;;;;;30.39;19.28;99449.44;7736132;22;96446;-59
2023/05/27 13:06:54;;;;;;;;;7.60;7.00;;;;;30.45;19.24;99443.28;7735893;22;97395;-58
2023/05/27 13:09:57;;;;;;;;;4.50;4.00;;;;;30.43;19.34;99439.25;7736290;22;96339;-59
2023/05/27 13:13:02;;;;;;;;;7.40;6.40;;;;;30.43;19.46;99431.72;7708351;22;96662;-58
2023/05/27 13:16:08;;;;;;;;;7.00;6.00;;;;;30.50;19.69;99436.75;7734557;22;97652;-59
2023/05/27 13:19:11;;;;;;;;;6.00;5.00;;;;;30.51;19.91;99430.84;7736109;22;97066;-59
2023/05/27 13:22:15;;;;;;;;;6.00;6.00;;;;;30.46;18.98;99425.47;7707863;22;96744;-59
2023/05/27 13:25:18;;;;;;;;;5.00;4.50;;;;;30.49;19.98;99424.81;7733762;22;97543;-59
2023/05/27 13:28:23;;;;;;;;;5.60;5.60;;;;;30.24;18.44;99416.66;7734638;22;96440;-59
2023/05/27 13:31:26;;;;;;;;;7.00;7.00;;;;;29.94;19.70;99415.88;7735588;22;96624;-59
2023/05/27 13:34:29;;;;;;;;;6.00;6.00;;;;;29.85;18.91;99420.66;7708452;22;97201;-59
2023/05/27 13:37:33;;;;;;;;;6.75;5.00;;;;;29.74;18.90;99419.41;7708175;22;97186;-58
2023/05/27 13:40:36;;;;;;;;;5.00;5.00;;;;;29.67;19.66;99415.16;7733674;22;96344;-59
2023/05/27 13:43:41;;;;;;;;;3.50;3.00;;;;;29.73;20.43;99414.97;7732629;22;97335;-59
2023/05/27 13:46:45;;;;;;;;;7.00;6.00;;;;;29.67;20.49;99408.78;7734570;22;96861;-59
2023/05/27 13:49:49;;;;;;;;;5.00;5.00;;;;;29.67;20.40;99406.84;7736093;22;96440;-59
2023/05/27 13:52:52;;;;;;;;;5.00;5.00;;;;;29.71;19.80;99405.00;7735968;22;96243;-59
2023/05/27 13:55:56;;;;;;;;;7.00;6.00;;;;;29.60;19.22;99400.19;7732778;22;97105;-58
2023/05/27 13:59:03;;;;;;;;;6.40;6.00;;;;;29.25;19.98;99405.88;7735654;22;96362;-58
2023/05/27 14:02:07;;;;;;;;;4.20;4.20;;;;;28.84;18.79;99394.53;7736101;22;96748;-59
2023/05/27 14:05:12;;;;;;;;;6.00;6.00;;;;;28.54;19.91;99382.47;7735913;22;96803;-58
2023/05/27 14:08:16;;;;;;;;;6.40;5.40;;;;;28.52;20.03;99389.50;7736279;22;96271;-59
2023/05/27 14:11:21;;;;;;;;;6.25;5.00;;;;;28.47;20.36;99398.81;7708480;22;96448;-59
2023/05/27 14:14:26;;;;;;;;;7.40;7.00;;;;;28.42;20.92;99393.44;7737025;22;96210;-58
2023/05/27 14:17:29;;;;;;;;;5.00;4.50;;;;;28.52;21.18;99395.06;7735479;22;96285;-59
2023/05/27 14:20:33;;;;;;;;;5.00;4.60;;;;;28.55;20.86;99391.63;7735697;22;96380;-59
2023/05/27 14:23:37;;;;;;;;;4.00;4.00;;;;;28.51;19.76;99388.69;7735544;22;96832;-58
2023/05/27 14:26:41;;;;;;;;;6.00;6.00;;;;;28.44;19.13;99385.63;7737565;22;96976;-59
2023/05/27 14:29:46;;;;;;;;;5.00;5.00;;;;;28.47;20.25;99386.91;7737018;22;96546;-59
2023/05/27 14:32:49;;;;;;;;;4.00;4.00;;;;;28.37;21.22;99386.09;7736933;22;96640;-59
2023/05/27 14:35:53;;;;;;;;;5.00;5.00;;;;;28.28;20.34;99387.25;7737893;22;96193;-58
2023/05/27 14:38:56;;;;;;;;;5.00;3.40;;;;;28.29;20.56;99375.03;7736597;22;96848;-59
2023/05/27 14:42:00;;;;;;;;;6.00;4.60;;;;;28.19;20.79;99372.56;7736297;22;96622;-58
2023/05/27 14:45:06;;;;;;;;;6.00;5.40;;;;;28.18;20.61;99366.22;7735402;22;96567;-58
2023/05/27 14:48:09;;;;;;;;;5.80;5.00;;;;;27.77;21.04;99313.97;7736514;22;96374;-59
2023/05/27 14:51:12;;;;;;;;;3.60;3.60;;;;;28.01;20.73;99360.63;7737758;22;96247;-59
2023/05/27 14:54:16;;;;;;;;;8.00;7.40;;;;;27.91;20.99;99353.44;7737574;22;96177;-59
2023/05/27 14:57:19;;;;;;;;;5.60;5.00;;;;;27.75;21.52;99354.25;7737830;22;96683;-59
2023/05/27 15:00:24;;;;;;;;;5.00;5.00;;;;;27.47;21.96;99357.22;7710305;22;96901;-59
2023/05/27 15:03:29;;;;;;;;;4.00;4.00;;;;;27.39;21.75;99348.91;7735378;22;96961;-59
2023/05/27 15:06:33;;;;;;;;;4.50;4.50;;;;;27.33;21.81;99353.75;7737488;22;96470;-59
2023/05/27 15:09:36;;;;;;;;;6.00;5.50;;;;;27.31;21.36;99349.69;7710430;22;96438;-58
2023/05/27 15:12:41;;;;;;;;;5.00;4.80;;;;;27.28;22.30;99340.06;7737949;22;96406;-58
2023/05/27 15:15:46;;;;;;;;;5.00;5.00;;;;;27.24;21.81;99333.53;7736766;22;97443;-59
2023/05/27 15:18:50;;;;;;;;;6.00;5.00;;;;;27.23;21.92;99329.13;7737931;22;96277;-59
2023/05/27 15:21:54;;;;;;;;;4.00;4.00;;;;;27.15;22.24;99332.72;7736760;22;96168;-58
2023/05/27 15:24:57;;;;;;;;;6.80;6.00;;;;;27.06;22.02;99334.63;7708711;22;96377;-59
2023/05/27 15:28:01;;;;;;;;;6.75;6.00;;;;;26.91;21.90;99332.28;7737101;22;96207;-59
2023/05/27 15:31:07;;;;;;;;;5.40;5.00;;;;;26.81;22.58;99322.28;7736917;22;96821;-59
2023/05/27 15:34:10;;;;;;;;;4.00;3.25;;;;;26.80;23.26;99320.63;7737469;22;96460;-59
2023/05/27 15:37:13;;;;;;;;;7.00;7.00;;;;;26.68;22.11;99314.88;7734644;22;96508;-59
2023/05/27 15:40:17;;;;;;;;;7.00;5.00;;;;;26.50;22.31;99326.97;7735620;22;96385;-59
2023/05/27 15:43:20;;;;;;;;;4.75;3.75;;;;;26.33;23.05;99327.69;7734982;22;96565;-59
2023/05/27 15:46:26;;;;;;;;;7.60;6.00;;;;;26.36;23.35;99321.50;7711416;22;96241;-59
2023/05/27 15:49:29;;;;;;;;;6.00;6.00;;;;;26.35;23.10;99317.09;7767892;22;96183;-59
2023/05/27 15:52:33;;;;;;;;;6.00;5.00;;;;;26.24;23.48;99301.94;7769863;22;96802;-58
2023/05/27 15:55:36;;;;;;;;;5.50;5.50;;;;;26.33;23.11;99315.81;7769747;22;96252;-58
2023/05/27 15:58:39;;;;;;;;;7.00;6.40;;;;;26.32;23.39;99317.75;7769290;22;96113;-58
2023/05/27 16:01:45;;;;;;;;;5.00;4.00;;;;;26.32;23.92;99319.69;7769214;22;96219;-59
2023/05/27 16:04:49;;;;;;;;;4.00;4.00;;;;;26.32;24.03;99320.50;7768834;22;96332;-59
2023/05/27 16:07:52;;;;;;;;;5.00;4.50;;;;;26.23;23.77;99312.16;7767948;22;97423;-58
2023/05/27 16:10:56;;;;;;;;;6.00;6.00;;;;;26.17;24.06;99312.56;7769318;22;96092;-59
2023/05/27 16:13:59;;;;;;;;;6.00;6.00;;;;;26.10;24.43;99303.88;7769520;22;96189;-59
2023/05/27 16:17:04;;;;;;;;;5.00;4.00;;;;;26.01;24.72;99308.53;7769497;22;96190;-59
2023/05/27 16:20:09;;;;;;;;;4.00;3.25;;;;;26.00;24.63;99306.91;7768912;22;96109;-59
2023/05/27 16:23:12;;;;;;;;;7.00;7.00;;;;;25.95;24.45;99304.28;7768829;22;96217;-58
2023/05/27 16:26:16;;;;;;;;;5.50;5.50;;;;;25.89;24.62;99295.28;7767400;22;96217;-59
2023/05/27 16:29:19;;;;;;;;;4.00;4.00;;;;;25.73;24.95;99303.09;7807589;22;96209;-58
2023/05/27 16:32:24;;;;;;;;;6.60;6.00;;;;;25.62;26.05;99295.34;7766367;22;98422;-58
2023/05/27 16:35:28;;;;;;;;;7.00;7.00;;;;;25.61;25.60;99296.50;7807464;22;96047;-59
2023/05/27 16:38:31;;;;;;;;;4.00;4.00;;;;;25.46;25.66;99292.91;7805885;22;96326;-59
2023/05/27 16:41:35;;;;;;;;;7.00;7.00;;;;;25.48;26.10;99284.31;7806968;22;96708;-59
2023/05/27 16:44:38;;;;;;;;;7.50;6.50;;;;;25.44;25.99;99292.41;7805598;22;96331;-58
2023/05/27 16:47:43;;;;;;;;;5.00;5.00;;;;;25.31;26.04;99284.16;7806996;22;96229;-58
2023/05/27 16:50:46;;;;;;;;;6.00;6.00;;;;;25.15;26.58;99285.59;7807786;22;96045;-59
2023/05/27 16:53:50;;;;;;;;;7.00;7.00;;;;;25.15;27.14;99282.81;7808091;22;96590;-59
2023/05/27 16:56:53;;;;;;;;;4.40;4.40;;;;;25.15;27.21;99285.59;7806584;22;96193;-58
2023/05/27 16:59:56;;;;;;;;;6.00;6.00;;;;;24.96;27.90;99286.53;7806921;22;96221;-58
2023/05/27 17:03:02;;;;;;;;;6.00;6.00;;;;;24.92;27.70;99287.44;7767718;22;96153;-59
2023/05/27 17:06:06;;;;;;;;;6.00;4.60;;;;;24.82;28.06;99293.13;7767697;22;96214;-59
2023/05/27 17:09:10;;;;;;;;;5.50;5.50;;;;;24.79;28.36;99289.03;7769783;22;96162;-59
2023/05/27 17:12:13;;;;;;;;;6.00;5.60;;;;;24.69;28.54;99280.13;7768844;22;96208;-58
2023/05/27 17:15:17;;;;;;;;;5.20;4.20;;;;;24.60;28.88;99294.63;7768141;22;96234;-58